Terminal Aerodrome Forecast
Issued by NWS

Home | Current Version | Previous Version | Text Only | Print | Product List | Glossary On
Versions: 1 2 3 4 5 6 7 8 9 10 11 12 13 14
000
FTAK31 PAJN 252320
TAFASI
TAF
PASI 252320Z 2600/2624 21008KT P6SM VCSH OVC035
      TEMPO 2600/2603 VRB05KT -SHRA BKN025 OVC035
     FM260600 30005KT P6SM BKN035 BKN050
     FM261900 27008KT P6SM SCT050=

USA.gov is the U.S. government's official web portal to all federal, state and local government web resources and services.